Time;durP1;ratioP1;P1;durP2;ratioP2;P2;SDS_P1;SDS_P2;PMS_P1;PMS_P2;Temp;Humidity;BMP_temperature;BMP_pressure;BME280_temperature;BME280_humidity;BME280_pressure;Samples;Min_cycle;Max_cycle;Signal;HPM_P1;HPM_P2
2022/03/06 00:02:01;;;;;;;;;;;;;;;14.90;40.64;102131.31;4435252;32;19950;-71
2022/03/06 00:04:28;;;;;;;;;;;;;;;14.93;40.30;102128.41;4435559;32;19986;-71
2022/03/06 00:06:53;;;;;;;;;;;;;;;14.65;40.41;102130.97;4436064;32;20096;-71
2022/03/06 00:09:19;;;;;;;;;;;;;;;14.56;41.11;102131.56;4432136;32;20011;-71
2022/03/06 00:11:44;;;;;;;;;;;;;;;14.55;41.01;102126.31;4434315;32;20304;-71
2022/03/06 00:14:10;;;;;;;;;;;;;;;14.44;41.02;102131.37;4424003;32;19976;-71
2022/03/06 00:16:36;;;;;;;;;;;;;;;14.20;41.61;102129.75;4423373;32;19997;-71
2022/03/06 00:19:02;;;;;;;;;;;;;;;14.36;41.37;102135.56;4422363;32;20369;-71
2022/03/06 00:21:27;;;;;;;;;;;;;;;14.42;40.69;102131.78;4420507;32;19986;-71
2022/03/06 00:23:53;;;;;;;;;;;;;;;14.39;40.82;102140.38;4422202;32;20012;-71
2022/03/06 00:26:18;;;;;;;;;;;;;;;14.17;41.06;102133.44;4423419;32;20056;-71
2022/03/06 00:28:45;;;;;;;;;;;;;;;14.48;40.35;102123.62;4425155;32;20008;-71
2022/03/06 00:31:11;;;;;;;;;;;;;;;14.24;41.19;102130.53;4422008;32;20264;-71
2022/03/06 00:33:36;;;;;;;;;;;;;;;13.97;41.40;102139.81;4421822;32;20004;-71
2022/03/06 00:36:03;;;;;;;;;;;;;;;14.01;41.07;102136.91;4425599;32;20397;-71
2022/03/06 00:38:28;;;;;;;;;;;;;;;13.93;41.63;102136.22;4426198;32;20367;-71
2022/03/06 00:40:54;;;;;;;;;;;;;;;14.03;41.52;102143.75;4422402;32;19985;-71
2022/03/06 00:43:20;;;;;;;;;;;;;;;14.12;41.18;102153.75;4423838;32;20005;-71
2022/03/06 00:45:45;;;;;;;;;;;;;;;14.15;41.20;102141.56;4423901;32;20351;-71
2022/03/06 00:48:11;;;;;;;;;;;;;;;14.16;40.84;102149.63;4422605;32;20051;-71
2022/03/06 00:50:38;;;;;;;;;;;;;;;14.24;40.74;102148.31;4423540;32;19971;-71
2022/03/06 00:53:05;;;;;;;;;;;;;;;14.41;40.20;102152.88;4424398;32;20337;-71
2022/03/06 00:55:32;;;;;;;;;;;;;;;14.45;40.35;102152.81;4421857;32;19949;-71
2022/03/06 00:58:05;;;;;;;;;;;;;;;14.42;40.16;102157.28;4425336;32;19961;-71
2022/03/06 01:00:34;;;;;;;;;;;;;;;14.56;39.52;102159.06;4420103;32;20639;-71
2022/03/06 01:03:00;;;;;;;;;;;;;;;14.46;40.23;102160.06;4423344;32;19961;-71
2022/03/06 01:05:26;;;;;;;;;;;;;;;14.36;40.28;102161.06;4423641;32;20417;-71
2022/03/06 01:07:51;;;;;;;;;;;;;;;14.22;40.42;102164.91;4423633;32;20056;-71
2022/03/06 01:10:16;;;;;;;;;;;;;;;14.11;40.37;102166.31;4421705;32;19949;-71
2022/03/06 01:12:43;;;;;;;;;;;;;;;14.24;40.33;102161.66;4421866;32;19965;-71
2022/03/06 01:15:09;;;;;;;;;;;;;;;14.15;40.58;102161.38;4421457;32;19957;-71
2022/03/06 01:17:35;;;;;;;;;;;;;;;14.50;39.85;102167.28;4422347;32;20047;-71
2022/03/06 01:20:00;;;;;;;;;;;;;;;14.48;39.47;102180.28;4421832;32;20338;-71
2022/03/06 01:22:26;;;;;;;;;;;;;;;14.71;39.57;102189.56;4422890;32;20017;-71
2022/03/06 01:24:51;;;;;;;;;;;;;;;14.72;39.21;102181.84;4420351;32;19984;-71
2022/03/06 01:27:17;;;;;;;;;;;;;;;14.85;39.28;102177.19;4425261;32;19966;-71
2022/03/06 01:29:44;;;;;;;;;;;;;;;14.72;39.40;102176.19;4422784;32;19980;-71
2022/03/06 01:32:10;;;;;;;;;;;;;;;14.72;39.36;102179.81;4420743;32;19972;-71
2022/03/06 01:34:35;;;;;;;;;;;;;;;14.67;39.32;102182.37;4422968;32;20423;-71
2022/03/06 01:37:01;;;;;;;;;;;;;;;14.68;39.30;102184.78;4424488;32;19972;-71
2022/03/06 01:39:26;;;;;;;;;;;;;;;14.40;40.13;102179.59;4424186;32;20436;-71
2022/03/06 01:41:52;;;;;;;;;;;;;;;14.33;39.97;102178.91;4421349;32;20314;-71
2022/03/06 01:44:17;;;;;;;;;;;;;;;14.36;40.07;102189.37;4424587;32;19976;-71
2022/03/06 01:46:45;;;;;;;;;;;;;;;14.34;39.96;102194.66;4421122;32;20317;-71
2022/03/06 01:49:10;;;;;;;;;;;;;;;13.98;40.78;102194.38;4421405;32;20016;-71
2022/03/06 01:51:36;;;;;;;;;;;;;;;14.11;40.41;102186.91;4421749;32;20000;-71
2022/03/06 01:54:01;;;;;;;;;;;;;;;14.09;40.49;102190.16;4421721;32;20359;-71
2022/03/06 01:56:27;;;;;;;;;;;;;;;13.97;40.59;102185.09;4422507;32;20016;-71
2022/03/06 01:58:53;;;;;;;;;;;;;;;13.99;40.59;102181.81;4419762;32;20016;-71
2022/03/06 02:01:20;;;;;;;;;;;;;;;13.79;41.03;102195.87;4419413;32;20292;-71
2022/03/06 02:03:46;;;;;;;;;;;;;;;13.58;41.40;102190.53;4424968;32;19967;-71
2022/03/06 02:06:11;;;;;;;;;;;;;;;13.63;41.50;102194.91;4423916;32;20032;-71
2022/03/06 02:08:38;;;;;;;;;;;;;;;13.71;41.44;102193.56;4422432;32;19957;-71
2022/03/06 02:11:05;;;;;;;;;;;;;;;13.91;41.29;102188.84;4420689;32;20432;-71
2022/03/06 02:13:31;;;;;;;;;;;;;;;14.14;40.92;102186.03;4423211;32;19981;-71
2022/03/06 02:15:57;;;;;;;;;;;;;;;14.26;40.72;102187.53;4423314;32;20347;-71
2022/03/06 02:18:23;;;;;;;;;;;;;;;14.06;40.93;102188.19;4422943;32;19957;-71
2022/03/06 02:20:48;;;;;;;;;;;;;;;14.44;39.97;102186.00;4418736;32;19965;-71
2022/03/06 02:23:16;;;;;;;;;;;;;;;14.63;39.73;102173.13;4421703;32;20036;-71
2022/03/06 02:25:42;;;;;;;;;;;;;;;14.60;39.90;102174.78;4422532;32;19967;-71
2022/03/06 02:28:08;;;;;;;;;;;;;;;14.29;39.71;102173.28;4421949;32;20366;-71
2022/03/06 02:30:35;;;;;;;;;;;;;;;14.19;40.07;102179.09;4421953;32;19973;-71
2022/03/06 02:33:02;;;;;;;;;;;;;;;14.13;40.44;102186.47;4421673;32;20516;-71
2022/03/06 02:35:28;;;;;;;;;;;;;;;14.04;40.81;102182.16;4421742;32;19953;-71
2022/03/06 02:37:54;;;;;;;;;;;;;;;14.09;40.77;102173.19;4424025;32;20294;-71
2022/03/06 02:40:21;;;;;;;;;;;;;;;14.16;40.90;102169.44;4420588;32;20384;-71
2022/03/06 02:42:48;;;;;;;;;;;;;;;13.93;40.63;102178.69;4420168;32;19949;-71
2022/03/06 02:45:15;;;;;;;;;;;;;;;14.17;40.77;102173.09;4422418;32;20739;-71
2022/03/06 02:47:42;;;;;;;;;;;;;;;14.07;40.90;102172.00;4423607;32;19996;-71
2022/03/06 02:50:09;;;;;;;;;;;;;;;13.78;41.34;102163.13;4421527;32;20045;-71
2022/03/06 02:52:34;;;;;;;;;;;;;;;14.01;40.99;102166.03;4421488;32;20310;-71
2022/03/06 02:55:00;;;;;;;;;;;;;;;14.24;41.01;102156.00;4420352;32;20213;-71
2022/03/06 02:57:26;;;;;;;;;;;;;;;14.36;40.48;102178.84;4422097;32;20369;-71
2022/03/06 02:59:51;;;;;;;;;;;;;;;14.51;40.41;102177.38;4422034;32;20362;-71
2022/03/06 03:02:17;;;;;;;;;;;;;;;14.13;41.21;102167.47;4421459;32;19995;-71
2022/03/06 03:04:42;;;;;;;;;;;;;;;14.39;41.17;102174.38;4421778;32;20012;-71
2022/03/06 03:07:08;;;;;;;;;;;;;;;14.37;41.29;102174.78;4420971;32;19957;-71
2022/03/06 03:09:34;;;;;;;;;;;;;;;14.62;41.07;102178.00;4421246;32;20014;-71
2022/03/06 03:12:00;;;;;;;;;;;;;;;14.65;40.96;102185.63;4418688;32;20008;-71
2022/03/06 03:14:31;;;;;;;;;;;;;;;14.64;40.98;102195.38;4421170;32;20319;-71
2022/03/06 03:16:58;;;;;;;;;;;;;;;14.59;41.34;102192.22;4423818;32;20001;-71
2022/03/06 03:19:24;;;;;;;;;;;;;;;14.80;41.18;102195.47;4419308;32;20444;-71
2022/03/06 03:21:50;;;;;;;;;;;;;;;14.69;41.00;102189.19;4419069;32;20029;-71
2022/03/06 03:24:16;;;;;;;;;;;;;;;14.84;40.92;102192.56;4422283;32;20034;-71
2022/03/06 03:26:41;;;;;;;;;;;;;;;14.61;40.14;102192.59;4421965;32;19977;-71
2022/03/06 03:29:07;;;;;;;;;;;;;;;14.66;40.72;102198.56;4422766;32;20005;-71
2022/03/06 03:31:33;;;;;;;;;;;;;;;14.70;40.72;102182.28;4420120;32;20001;-71
2022/03/06 03:33:58;;;;;;;;;;;;;;;14.66;41.07;102184.38;4422201;32;19989;-71
2022/03/06 03:36:25;;;;;;;;;;;;;;;14.80;40.74;102183.34;4419327;32;20437;-71
2022/03/06 03:38:50;;;;;;;;;;;;;;;14.94;40.42;102183.88;4423131;32;19987;-71
2022/03/06 03:41:16;;;;;;;;;;;;;;;14.97;40.28;102187.88;4417200;32;20051;-71
2022/03/06 03:43:41;;;;;;;;;;;;;;;14.91;40.38;102183.94;4419360;32;20038;-71
2022/03/06 03:46:07;;;;;;;;;;;;;;;14.99;40.42;102186.22;4420126;32;19953;-70
2022/03/06 03:48:32;;;;;;;;;;;;;;;14.85;40.66;102183.63;4422787;32;20012;-72
2022/03/06 03:50:58;;;;;;;;;;;;;;;14.98;40.53;102189.47;4424235;32;19996;-72
2022/03/06 03:53:24;;;;;;;;;;;;;;;14.93;40.34;102185.09;4424577;32;19968;-71
2022/03/06 03:55:50;;;;;;;;;;;;;;;14.93;40.33;102184.28;4421427;32;19965;-71
2022/03/06 03:58:16;;;;;;;;;;;;;;;14.75;40.40;102192.31;4421205;32;20020;-72
2022/03/06 04:00:43;;;;;;;;;;;;;;;14.64;40.81;102192.53;4423469;32;20060;-69
2022/03/06 04:03:09;;;;;;;;;;;;;;;14.58;40.71;102196.28;4422353;32;19996;-71
2022/03/06 04:05:35;;;;;;;;;;;;;;;14.29;41.50;102198.78;4423783;32;19988;-72
2022/03/06 04:08:00;;;;;;;;;;;;;;;14.30;41.67;102194.72;4425979;32;20018;-71
2022/03/06 04:10:27;;;;;;;;;;;;;;;14.47;41.48;102198.50;4423292;32;20013;-71
2022/03/06 04:12:52;;;;;;;;;;;;;;;14.44;41.51;102194.50;4426553;32;19957;-71
2022/03/06 04:15:18;;;;;;;;;;;;;;;14.61;41.43;102195.44;4423424;32;20332;-71
2022/03/06 04:17:43;;;;;;;;;;;;;;;14.45;41.14;102198.91;4424991;32;20378;-71
2022/03/06 04:20:09;;;;;;;;;;;;;;;14.37;40.88;102193.81;4423067;32;20457;-71
2022/03/06 04:22:34;;;;;;;;;;;;;;;14.52;41.02;102203.69;4422034;32;20328;-71
2022/03/06 04:25:00;;;;;;;;;;;;;;;14.36;41.35;102204.31;4423564;32;20079;-71
2022/03/06 04:27:25;;;;;;;;;;;;;;;14.31;41.48;102209.69;4424787;32;19984;-72
2022/03/06 04:29:51;;;;;;;;;;;;;;;14.51;41.11;102214.19;4423016;32;20319;-71
2022/03/06 04:32:17;;;;;;;;;;;;;;;14.60;41.35;102213.66;4422773;32;20020;-72
2022/03/06 04:34:42;;;;;;;;;;;;;;;14.68;41.07;102215.94;4423597;32;20004;-71
2022/03/06 04:37:08;;;;;;;;;;;;;;;14.45;41.35;102221.56;4425292;32;20360;-71
2022/03/06 04:39:33;;;;;;;;;;;;;;;14.12;41.73;102208.34;4424052;32;20285;-71
2022/03/06 04:41:59;;;;;;;;;;;;;;;14.22;41.93;102232.03;4423369;32;19957;-71
2022/03/06 04:44:25;;;;;;;;;;;;;;;14.24;42.45;102230.44;4424089;32;19949;-71
2022/03/06 04:46:51;;;;;;;;;;;;;;;14.02;43.04;102214.94;4423453;32;20005;-71
2022/03/06 04:49:17;;;;;;;;;;;;;;;13.99;43.23;102208.12;4423847;32;20399;-71
2022/03/06 04:51:43;;;;;;;;;;;;;;;13.99;43.48;102215.78;4422279;32;20040;-71
2022/03/06 04:54:08;;;;;;;;;;;;;;;13.98;43.36;102209.34;4425392;32;20083;-71
2022/03/06 04:56:34;;;;;;;;;;;;;;;13.67;43.94;102210.59;4422548;32;20589;-71
2022/03/06 04:59:00;;;;;;;;;;;;;;;13.92;43.45;102216.72;4422825;32;19965;-71
2022/03/06 05:01:25;;;;;;;;;;;;;;;14.02;43.38;102220.59;4420594;32;19997;-71
2022/03/06 05:03:51;;;;;;;;;;;;;;;14.01;43.61;102222.66;4422939;32;20001;-71
2022/03/06 05:06:17;;;;;;;;;;;;;;;13.72;43.82;102227.09;4423739;32;20136;-71
2022/03/06 05:08:43;;;;;;;;;;;;;;;13.80;43.57;102217.28;4424211;32;19993;-71
2022/03/06 05:11:10;;;;;;;;;;;;;;;13.73;43.54;102214.56;4423239;32;20604;-71
2022/03/06 05:13:36;;;;;;;;;;;;;;;13.66;43.71;102222.34;4422530;32;20126;-71
2022/03/06 05:16:01;;;;;;;;;;;;;;;13.50;44.07;102214.44;4423246;32;19996;-71
2022/03/06 05:18:27;;;;;;;;;;;;;;;13.36;44.45;102216.66;4422124;32;20011;-71
2022/03/06 05:20:52;;;;;;;;;;;;;;;13.39;44.34;102218.62;4420355;32;20001;-71
2022/03/06 05:23:18;;;;;;;;;;;;;;;13.21;44.62;102218.84;4424118;32;19964;-71
2022/03/06 05:25:45;;;;;;;;;;;;;;;13.12;45.02;102220.56;4421645;32;20009;-71
2022/03/06 05:28:11;;;;;;;;;;;;;;;13.02;45.22;102221.50;4422814;32;20002;-71
2022/03/06 05:30:36;;;;;;;;;;;;;;;12.87;45.62;102220.00;4419683;32;20458;-71
2022/03/06 05:33:03;;;;;;;;;;;;;;;13.09;45.32;102227.06;4421416;32;19964;-71
2022/03/06 05:35:28;;;;;;;;;;;;;;;13.23;44.89;102219.22;4423992;32;20008;-71
2022/03/06 05:37:54;;;;;;;;;;;;;;;13.40;45.07;102228.72;4425236;32;20367;-71
2022/03/06 05:40:20;;;;;;;;;;;;;;;13.37;44.98;102226.72;4421874;32;20292;-71
2022/03/06 05:42:45;;;;;;;;;;;;;;;13.29;44.49;102226.00;4420523;32;19968;-71
2022/03/06 05:45:11;;;;;;;;;;;;;;;13.29;44.69;102228.06;4424944;32;19945;-71
2022/03/06 05:47:36;;;;;;;;;;;;;;;13.35;44.57;102232.03;4420658;32;20043;-71
2022/03/06 05:50:03;;;;;;;;;;;;;;;13.15;44.59;102223.34;4421178;32;20031;-71
2022/03/06 05:52:28;;;;;;;;;;;;;;;13.19;44.87;102232.59;4421696;32;20005;-71
2022/03/06 05:54:54;;;;;;;;;;;;;;;13.20;44.66;102236.25;4420260;32;19953;-71
2022/03/06 05:57:19;;;;;;;;;;;;;;;13.10;44.78;102237.94;4422422;32;20045;-71
2022/03/06 05:59:45;;;;;;;;;;;;;;;12.82;45.32;102237.41;4423089;32;19965;-71
2022/03/06 06:02:10;;;;;;;;;;;;;;;12.88;45.19;102238.53;4420702;32;19998;-71
2022/03/06 06:04:36;;;;;;;;;;;;;;;13.01;44.98;102243.28;4422338;32;19999;-71
2022/03/06 06:07:02;;;;;;;;;;;;;;;12.88;45.27;102239.34;4423497;32;19996;-71
2022/03/06 06:09:28;;;;;;;;;;;;;;;12.81;45.33;102235.78;4423685;32;20315;-71
2022/03/06 06:11:53;;;;;;;;;;;;;;;12.74;45.08;102239.50;4421431;32;19996;-71
2022/03/06 06:14:19;;;;;;;;;;;;;;;12.90;44.85;102241.75;4422040;32;20055;-71
2022/03/06 06:16:44;;;;;;;;;;;;;;;12.80;44.89;102243.47;4422070;32;20048;-71
2022/03/06 06:19:10;;;;;;;;;;;;;;;12.71;45.08;102233.87;4421347;32;19954;-71
2022/03/06 06:21:36;;;;;;;;;;;;;;;12.67;45.32;102238.75;4421807;32;19989;-71
2022/03/06 06:24:01;;;;;;;;;;;;;;;12.72;45.06;102239.09;4422859;32;20151;-71
2022/03/06 06:26:27;;;;;;;;;;;;;;;12.77;45.19;102260.44;4421130;32;20000;-71
2022/03/06 06:28:56;;;;;;;;;;;;;;;12.54;45.55;102263.06;4421551;32;20299;-71
2022/03/06 06:31:23;;;;;;;;;;;;;;;12.75;45.30;102260.87;4421259;32;19969;-71
2022/03/06 06:33:49;;;;;;;;;;;;;;;12.87;45.34;102266.00;4421424;32;19992;-71
2022/03/06 06:36:14;;;;;;;;;;;;;;;12.86;45.50;102260.78;4422809;32;20353;-71
2022/03/06 06:38:40;;;;;;;;;;;;;;;13.03;44.99;102273.94;4423361;32;19976;-71
2022/03/06 06:41:06;;;;;;;;;;;;;;;13.10;44.79;102273.91;4423136;32;20005;-71
2022/03/06 06:43:32;;;;;;;;;;;;;;;13.13;44.59;102278.72;4421422;32;20395;-71
2022/03/06 06:45:57;;;;;;;;;;;;;;;13.10;44.76;102274.69;4420114;32;19957;-71
2022/03/06 06:48:23;;;;;;;;;;;;;;;13.17;44.57;102287.97;4419793;32;20502;-71
2022/03/06 06:50:48;;;;;;;;;;;;;;;13.21;44.39;102283.87;4422919;32;19981;-71
2022/03/06 06:53:14;;;;;;;;;;;;;;;13.40;44.13;102297.41;4422354;32;20263;-71
2022/03/06 06:55:40;;;;;;;;;;;;;;;13.43;43.97;102299.38;4421294;32;20606;-71
2022/03/06 06:58:05;;;;;;;;;;;;;;;13.68;43.78;102288.59;4419601;32;20382;-71
2022/03/06 07:00:31;;;;;;;;;;;;;;;13.61;43.49;102291.50;4422643;32;19982;-71
2022/03/06 07:02:56;;;;;;;;;;;;;;;13.73;43.58;102298.63;4420736;32;20012;-71
2022/03/06 07:05:22;;;;;;;;;;;;;;;13.77;43.51;102297.38;4423833;32;20349;-71
2022/03/06 07:07:47;;;;;;;;;;;;;;;13.81;42.35;102286.81;4419873;32;19953;-71
2022/03/06 07:10:13;;;;;;;;;;;;;;;13.73;43.27;102288.13;4421353;32;20022;-71
2022/03/06 07:12:43;;;;;;;;;;;;;;;13.51;42.82;102283.97;4420167;32;19975;-71
2022/03/06 07:15:09;;;;;;;;;;;;;;;13.52;43.19;102279.09;4422124;32;19956;-71
2022/03/06 07:17:34;;;;;;;;;;;;;;;13.80;42.98;102287.22;4420602;32;19998;-71
2022/03/06 07:20:00;;;;;;;;;;;;;;;13.92;42.33;102293.12;4420605;32;20005;-71
2022/03/06 07:22:26;;;;;;;;;;;;;;;13.91;42.73;102293.56;4420025;32;20012;-71
2022/03/06 07:24:51;;;;;;;;;;;;;;;14.00;42.65;102294.63;4423096;32;20011;-71
2022/03/06 07:27:17;;;;;;;;;;;;;;;13.94;42.78;102293.50;4423222;32;19985;-71
2022/03/06 07:29:42;;;;;;;;;;;;;;;13.96;42.16;102288.22;4423969;32;20437;-71
2022/03/06 07:32:08;;;;;;;;;;;;;;;13.99;42.28;102286.56;4422520;32;20011;-71
2022/03/06 07:34:33;;;;;;;;;;;;;;;14.07;42.14;102288.09;4424118;32;20700;-71
2022/03/06 07:36:59;;;;;;;;;;;;;;;13.62;42.58;102286.63;4425815;32;20389;-71
2022/03/06 07:39:25;;;;;;;;;;;;;;;13.89;42.28;102284.69;4425210;32;20370;-71
2022/03/06 07:41:50;;;;;;;;;;;;;;;13.88;42.47;102285.91;4424600;32;20359;-71
2022/03/06 07:44:16;;;;;;;;;;;;;;;13.76;42.81;102294.97;4423716;32;19949;-71
2022/03/06 07:46:41;;;;;;;;;;;;;;;13.89;42.88;102291.16;4424101;32;20421;-71
2022/03/06 07:49:07;;;;;;;;;;;;;;;13.99;42.46;102292.22;4423987;32;20377;-71
2022/03/06 07:51:32;;;;;;;;;;;;;;;13.88;42.86;102291.56;4424221;32;19950;-71
2022/03/06 07:53:58;;;;;;;;;;;;;;;14.14;42.39;102293.63;4423583;32;20007;-71
2022/03/06 07:56:23;;;;;;;;;;;;;;;14.06;42.33;102295.75;4424354;32;20384;-71
2022/03/06 07:58:49;;;;;;;;;;;;;;;14.23;42.34;102302.44;4423103;32;19953;-71
2022/03/06 08:01:15;;;;;;;;;;;;;;;14.16;41.72;102294.03;4420061;32;21014;-71
2022/03/06 08:03:40;;;;;;;;;;;;;;;14.25;41.99;102307.69;4423610;32;19996;-71
2022/03/06 08:06:06;;;;;;;;;;;;;;;14.24;41.90;102306.09;4423107;32;20054;-71
2022/03/06 08:08:31;;;;;;;;;;;;;;;14.40;41.81;102303.41;4424161;32;20026;-71
2022/03/06 08:10:57;;;;;;;;;;;;;;;14.37;41.41;102313.56;4422205;32;19992;-71
2022/03/06 08:13:22;;;;;;;;;;;;;;;14.65;41.48;102313.16;4422693;32;19965;-71
2022/03/06 08:15:48;;;;;;;;;;;;;;;14.83;41.01;102312.84;4423779;32;20000;-71
2022/03/06 08:18:13;;;;;;;;;;;;;;;15.06;40.49;102319.34;4423350;32;19999;-71
2022/03/06 08:20:39;;;;;;;;;;;;;;;15.21;40.44;102317.03;4423214;32;20178;-71
2022/03/06 08:23:04;;;;;;;;;;;;;;;15.36;40.40;102324.06;4422596;32;19959;-71
2022/03/06 08:25:30;;;;;;;;;;;;;;;15.15;40.59;102324.44;4421081;32;20001;-71
2022/03/06 08:27:56;;;;;;;;;;;;;;;15.50;39.48;102329.50;4422720;32;19992;-71
2022/03/06 08:30:21;;;;;;;;;;;;;;;15.61;39.61;102330.91;4423516;32;19977;-71
2022/03/06 08:32:47;;;;;;;;;;;;;;;15.44;39.91;102325.56;4423678;32;20490;-71
2022/03/06 08:35:12;;;;;;;;;;;;;;;15.57;39.30;102330.19;4424096;32;20050;-71
2022/03/06 08:37:38;;;;;;;;;;;;;;;15.68;39.21;102338.50;4424758;32;20000;-71
2022/03/06 08:40:04;;;;;;;;;;;;;;;15.60;39.24;102340.66;4422429;32;19958;-71
2022/03/06 08:42:29;;;;;;;;;;;;;;;15.43;39.10;102336.09;4420805;32;19972;-71
2022/03/06 08:44:55;;;;;;;;;;;;;;;15.59;39.20;102344.72;4422928;32;20103;-71
2022/03/06 08:47:21;;;;;;;;;;;;;;;15.53;39.16;102343.62;4423721;32;20314;-71
2022/03/06 08:49:46;;;;;;;;;;;;;;;15.69;38.78;102343.72;4423399;32;19997;-71
2022/03/06 08:52:12;;;;;;;;;;;;;;;16.02;38.79;102348.31;4420800;32;20832;-71
2022/03/06 08:54:38;;;;;;;;;;;;;;;16.27;38.91;102344.94;4422758;32;20455;-71
2022/03/06 08:57:03;;;;;;;;;;;;;;;16.70;38.31;102348.44;4420918;32;20385;-71
2022/03/06 08:59:29;;;;;;;;;;;;;;;16.60;37.56;102348.69;4421093;32;20060;-69
2022/03/06 09:01:55;;;;;;;;;;;;;;;17.36;36.25;102354.47;4420446;32;20349;-70
2022/03/06 09:04:23;;;;;;;;;;;;;;;17.84;35.78;102357.25;4422378;32;19996;-71
2022/03/06 09:06:49;;;;;;;;;;;;;;;17.76;35.64;102355.03;4421860;32;20343;-71
2022/03/06 09:09:14;;;;;;;;;;;;;;;18.25;34.92;102353.59;4423172;32;20276;-71
2022/03/06 09:11:40;;;;;;;;;;;;;;;18.33;34.13;102362.75;4419795;32;20670;-71
2022/03/06 09:14:05;;;;;;;;;;;;;;;18.48;34.53;102355.37;4421224;32;20001;-71
2022/03/06 09:16:31;;;;;;;;;;;;;;;18.74;34.00;102351.28;4421923;32;19983;-71
2022/03/06 09:18:56;;;;;;;;;;;;;;;18.66;33.51;102356.44;4419117;32;20011;-71
2022/03/06 09:21:22;;;;;;;;;;;;;;;18.92;33.36;102355.16;4423541;32;19949;-71
2022/03/06 09:23:48;;;;;;;;;;;;;;;18.90;33.81;102356.88;4422929;32;19957;-71
2022/03/06 09:26:13;;;;;;;;;;;;;;;19.33;32.71;102359.94;4418874;32;20343;-71
2022/03/06 09:28:39;;;;;;;;;;;;;;;19.35;32.83;102369.63;4420782;32;20306;-71
2022/03/06 09:31:04;;;;;;;;;;;;;;;19.56;32.78;102366.03;4419931;32;20405;-71
2022/03/06 09:33:30;;;;;;;;;;;;;;;19.40;32.86;102366.19;4424041;32;20633;-71
2022/03/06 09:35:56;;;;;;;;;;;;;;;19.56;32.40;102360.31;4421276;32;20460;-71
2022/03/06 09:38:22;;;;;;;;;;;;;;;19.75;32.79;102366.97;4420132;32;19957;-71
2022/03/06 09:40:47;;;;;;;;;;;;;;;19.63;32.01;102368.63;4421108;32;20300;-71
2022/03/06 09:43:14;;;;;;;;;;;;;;;19.72;32.46;102379.34;4422382;32;19957;-71
2022/03/06 09:45:41;;;;;;;;;;;;;;;19.31;32.10;102371.00;4420274;32;19975;-71
2022/03/06 09:48:08;;;;;;;;;;;;;;;19.23;32.74;102366.75;4421041;32;20421;-71
2022/03/06 09:50:34;;;;;;;;;;;;;;;19.14;33.20;102364.59;4421183;32;20019;-71
2022/03/06 09:52:59;;;;;;;;;;;;;;;18.77;33.66;102370.34;4420803;32;21064;-71
2022/03/06 09:55:26;;;;;;;;;;;;;;;19.05;33.37;102367.34;4420608;32;20035;-71
2022/03/06 09:57:52;;;;;;;;;;;;;;;19.27;33.48;102361.78;4419770;32;20448;-71
2022/03/06 10:00:18;;;;;;;;;;;;;;;18.89;33.59;102358.94;4421656;32;20064;-71
2022/03/06 10:02:52;;;;;;;;;;;;;;;18.76;33.79;102360.19;4421418;32;19961;-71
2022/03/06 10:05:26;;;;;;;;;;;;;;;18.68;34.79;102362.47;4419717;32;20716;-71
2022/03/06 10:07:51;;;;;;;;;;;;;;;19.15;33.60;102354.78;4420073;32;20002;-71
2022/03/06 10:10:34;;;;;;;;;;;;;;;19.28;33.12;102369.88;4420374;32;20009;-70
2022/03/06 10:12:59;;;;;;;;;;;;;;;19.19;33.27;102374.66;4420737;32;19960;-71
2022/03/06 10:15:25;;;;;;;;;;;;;;;19.23;32.84;102369.59;4421294;32;20048;-71
2022/03/06 10:17:59;;;;;;;;;;;;;;;19.29;32.34;102374.31;4419978;32;19968;-70
2022/03/06 10:20:28;;;;;;;;;;;;;;;19.03;33.23;102374.78;4419496;32;19961;-71
2022/03/06 10:22:53;;;;;;;;;;;;;;;18.93;33.32;102382.44;4421898;32;19997;-70
2022/03/06 10:25:20;;;;;;;;;;;;;;;18.92;33.07;102386.56;4419761;32;20337;-70
2022/03/06 10:27:54;;;;;;;;;;;;;;;18.77;33.17;102374.00;4421981;32;20378;-70
2022/03/06 10:33:04;;;;;;;;;;;;;;;19.82;31.90;102398.16;3947610;32;15851694;-71
2022/03/06 10:41:00;;;;;;;;;;;;;;;20.72;30.15;102383.72;3952002;32;15723457;-70
2022/03/06 10:43:27;;;;;;;;;;;;;;;20.72;30.15;102383.72;4420028;32;21081;-72
2022/03/06 10:46:12;;;;;;;;;;;;;;;20.04;30.11;102389.59;4418472;32;20001;-72
2022/03/06 10:48:39;;;;;;;;;;;;;;;20.80;29.41;102388.66;4421080;32;20024;-71
2022/03/06 10:51:07;;;;;;;;;;;;;;;21.24;28.81;102384.44;4418599;32;19992;-71
2022/03/06 10:53:32;;;;;;;;;;;;;;;21.76;28.13;102386.28;4422065;32;20390;-71
2022/03/06 10:56:14;;;;;;;;;;;;;;;22.09;27.43;102378.63;4420305;32;20025;-71
2022/03/06 10:58:42;;;;;;;;;;;;;;;21.87;27.09;102388.69;4421970;32;20395;-71
2022/03/06 11:01:07;;;;;;;;;;;;;;;21.76;26.74;102380.56;4419969;32;19949;-71
2022/03/06 11:03:35;;;;;;;;;;;;;;;22.51;26.58;102381.59;4421684;32;19995;-71
2022/03/06 11:06:03;;;;;;;;;;;;;;;22.76;26.23;102390.59;4423793;32;19995;-72
2022/03/06 11:08:30;;;;;;;;;;;;;;;23.28;25.99;102380.66;4420582;32;19954;-71
2022/03/06 11:10:56;;;;;;;;;;;;;;;23.45;25.56;102374.03;4419123;32;20064;-71
2022/03/06 11:13:22;;;;;;;;;;;;;;;23.27;25.48;102379.06;4420747;32;20053;-72
2022/03/06 11:15:49;;;;;;;;;;;;;;;23.06;25.63;102380.91;4419776;32;20023;-72
2022/03/06 11:18:14;;;;;;;;;;;;;;;22.91;25.16;102376.34;4420217;32;20014;-71
2022/03/06 11:20:42;;;;;;;;;;;;;;;23.15;25.11;102371.44;4417422;32;20009;-71
2022/03/06 11:23:28;;;;;;;;;;;;;;;23.66;24.93;102365.56;4420595;32;20005;-72
2022/03/06 11:26:13;;;;;;;;;;;;;;;23.84;24.35;102357.56;4420433;32;20339;-72
2022/03/06 11:28:43;;;;;;;;;;;;;;;23.61;24.37;102357.59;4422210;32;20345;-72
2022/03/06 11:31:10;;;;;;;;;;;;;;;23.45;24.41;102362.53;4420619;32;19949;-72
2022/03/06 11:33:40;;;;;;;;;;;;;;;23.34;24.47;102355.72;4420724;32;20000;-72
2022/03/06 11:36:26;;;;;;;;;;;;;;;23.36;24.60;102353.97;4423503;32;19949;-72
2022/03/06 11:38:52;;;;;;;;;;;;;;;23.48;23.97;102361.53;4419487;32;20027;-72
2022/03/06 11:41:18;;;;;;;;;;;;;;;23.77;23.41;102357.94;4418640;32;20042;-71
2022/03/06 11:43:47;;;;;;;;;;;;;;;24.12;23.39;102356.09;4418764;32;19962;-71
2022/03/06 11:51:30;;;;;;;;;;;;;;;24.90;23.37;102367.69;3948429;32;15722427;-72
2022/03/06 12:06:56;;;;;;;;;;;;;;;26.31;21.96;102359.06;3956907;31;15719961;-72
2022/03/06 12:11:59;;;;;;;;;;;;;;;26.38;21.43;102352.84;3950497;32;15724615;-72
2022/03/06 12:22:20;;;;;;;;;;;;;;;30.25;17.23;102355.13;3950166;32;15734656;-72
2022/03/06 12:24:47;;;;;;;;;;;;;;;30.25;17.23;102355.13;4434725;32;20004;-71
2022/03/06 12:27:13;;;;;;;;;;;;;;;29.46;17.40;102355.22;4432082;32;20396;-70
2022/03/06 12:29:55;;;;;;;;;;;;;;;30.49;16.44;102353.09;4433095;32;19965;-70
2022/03/06 12:32:37;;;;;;;;;;;;;;;30.99;15.57;102346.06;4433374;32;20070;-70
2022/03/06 12:40:16;;;;;;;;;;;;;;;30.47;14.62;102346.25;3966789;31;15714779;-72
2022/03/06 12:42:43;;;;;;;;;;;;;;;30.47;14.62;102346.25;4447223;32;19964;-72
2022/03/06 12:47:46;;;;;;;;;;;;;;;30.32;14.62;102331.31;3967467;31;15717225;-72
2022/03/06 12:50:15;;;;;;;;;;;;;;;29.84;14.90;102331.06;4449364;32;19961;-72
2022/03/06 12:52:41;;;;;;;;;;;;;;;29.50;15.08;102323.81;4447861;32;20299;-72
2022/03/06 12:55:14;;;;;;;;;;;;;;;29.70;14.96;102329.31;4451764;32;20000;-72
2022/03/06 12:57:45;;;;;;;;;;;;;;;28.10;15.98;102326.56;4449618;32;20375;-72
2022/03/06 13:00:13;;;;;;;;;;;;;;;27.29;16.53;102319.94;4447777;32;20380;-72
2022/03/06 13:02:39;;;;;;;;;;;;;;;27.44;16.68;102317.63;4450604;32;19964;-72
2022/03/06 13:05:06;;;;;;;;;;;;;;;27.13;17.08;102310.59;4452293;32;20004;-72
2022/03/06 13:07:33;;;;;;;;;;;;;;;25.87;18.22;102312.41;4449128;32;20271;-72
2022/03/06 13:10:02;;;;;;;;;;;;;;;25.58;18.71;102312.59;4446300;32;19988;-72
2022/03/06 13:12:28;;;;;;;;;;;;;;;25.74;18.75;102309.09;4450911;32;20010;-72
2022/03/06 13:14:54;;;;;;;;;;;;;;;25.57;18.77;102305.22;4450664;32;20424;-72
2022/03/06 13:17:20;;;;;;;;;;;;;;;25.55;18.61;102304.97;4450183;32;20012;-72